Main page
METAR-TAF:

METAR-TAF

Airports :

Hawarden, Wales

Hawarden Airport

latitude: 53-10N, longitude: 002-59W, elevation: 10 m

Current weather observation

The report was made 22 minutes ago, at 08:20 UTC
Wind 5 kt from the North
Temperature 16°C
Humidity 72%
Pressure 1019 hPa
Visibility 10 km or more
Broken clouds at a height of 2000 ft
Broken clouds at a height of 4800 ft

METAR: EGNR 230820Z 36005KT 9999 BKN020 BKN048 16/11 Q1019

Time: 09:42 (08:42 UTC)

Forecast

The report was made 41 minutes ago, at 08:01 UTC
Forecast valid from 23 at 09 UTC to 23 at 18 UTC
Wind 7 kt from the West/Northwest
Visibility 10 km or more
Scattered clouds at a height of 3500 ft

TAF: EGNR 230801Z 2309/2318 30007KT 9999 SCT035

Weather observations and forecasts of more than 4000 airports (METAR and TAF reports).

The available stations are represented by yellow and red dots on the map.

Hover mouse over dot to see the name of the station.

Then click to see weather observations and forecasts.

To change the map : click on the green buttons with a black cross to zoom in, on the green button with a dash to zoom out, or on the green arrows for adjacent maps.


METAR-TAF: